sensor_id;sensor_type;location;lat;lon;timestamp;P1;durP1;ratioP1;P2;durP2;ratioP2
20056;SDS011;10189;49.546;7.906;2023-04-01T00:01:19;9.48;;;2.22;;
20056;SDS011;10189;49.546;7.906;2023-04-01T00:03:46;4.90;;;1.55;;
20056;SDS011;10189;49.546;7.906;2023-04-01T00:06:14;5.30;;;1.88;;
20056;SDS011;10189;49.546;7.906;2023-04-01T00:08:43;2.13;;;1.08;;
20056;SDS011;10189;49.546;7.906;2023-04-01T00:11:10;5.00;;;1.40;;
20056;SDS011;10189;49.546;7.906;2023-04-01T00:13:37;6.68;;;1.63;;
20056;SDS011;10189;49.546;7.906;2023-04-01T00:16:04;4.20;;;1.20;;
20056;SDS011;10189;49.546;7.906;2023-04-01T00:18:30;6.07;;;1.55;;
20056;SDS011;10189;49.546;7.906;2023-04-01T00:20:56;4.68;;;1.67;;
20056;SDS011;10189;49.546;7.906;2023-04-01T00:23:22;6.28;;;1.60;;
20056;SDS011;10189;49.546;7.906;2023-04-01T00:25:49;3.28;;;1.50;;
20056;SDS011;10189;49.546;7.906;2023-04-01T00:28:15;4.25;;;1.45;;
20056;SDS011;10189;49.546;7.906;2023-04-01T00:30:43;7.47;;;1.80;;
20056;SDS011;10189;49.546;7.906;2023-04-01T00:33:10;8.57;;;1.75;;
20056;SDS011;10189;49.546;7.906;2023-04-01T00:35:37;5.20;;;1.55;;
20056;SDS011;10189;49.546;7.906;2023-04-01T00:38:03;7.22;;;1.88;;
20056;SDS011;10189;49.546;7.906;2023-04-01T00:40:32;5.72;;;1.80;;
20056;SDS011;10189;49.546;7.906;2023-04-01T00:43:11;4.07;;;1.60;;
20056;SDS011;10189;49.546;7.906;2023-04-01T00:45:45;6.28;;;1.73;;
20056;SDS011;10189;49.546;7.906;2023-04-01T00:50:50;5.00;;;1.50;;
20056;SDS011;10189;49.546;7.906;2023-04-01T00:53:29;7.25;;;1.63;;
20056;SDS011;10189;49.546;7.906;2023-04-01T00:56:02;4.60;;;1.50;;
20056;SDS011;10189;49.546;7.906;2023-04-01T00:58:38;4.57;;;1.75;;
20056;SDS011;10189;49.546;7.906;2023-04-01T01:01:11;6.20;;;1.75;;
20056;SDS011;10189;49.546;7.906;2023-04-01T01:03:38;4.47;;;1.45;;
20056;SDS011;10189;49.546;7.906;2023-04-01T01:06:16;6.43;;;1.92;;
20056;SDS011;10189;49.546;7.906;2023-04-01T01:15:12;7.05;;;1.77;;
20056;SDS011;10189;49.546;7.906;2023-04-01T01:24:25;5.20;;;1.48;;
20056;SDS011;10189;49.546;7.906;2023-04-01T01:27:16;6.82;;;1.90;;
20056;SDS011;10189;49.546;7.906;2023-04-01T01:29:48;5.43;;;1.55;;
20056;SDS011;10189;49.546;7.906;2023-04-01T01:35:38;3.88;;;1.52;;
20056;SDS011;10189;49.546;7.906;2023-04-01T01:38:21;5.45;;;1.60;;
20056;SDS011;10189;49.546;7.906;2023-04-01T01:41:00;6.03;;;1.23;;
20056;SDS011;10189;49.546;7.906;2023-04-01T01:43:36;3.95;;;1.50;;
20056;SDS011;10189;49.546;7.906;2023-04-01T01:46:09;4.28;;;1.40;;
20056;SDS011;10189;49.546;7.906;2023-04-01T01:48:42;5.47;;;1.90;;
20056;SDS011;10189;49.546;7.906;2023-04-01T01:51:12;5.43;;;1.60;;
20056;SDS011;10189;49.546;7.906;2023-04-01T01:53:39;6.97;;;1.83;;
20056;SDS011;10189;49.546;7.906;2023-04-01T01:56:05;4.97;;;1.73;;
20056;SDS011;10189;49.546;7.906;2023-04-01T01:58:47;6.18;;;1.50;;
20056;SDS011;10189;49.546;7.906;2023-04-01T02:01:24;7.88;;;3.50;;
20056;SDS011;10189;49.546;7.906;2023-04-01T02:03:58;7.78;;;2.03;;
20056;SDS011;10189;49.546;7.906;2023-04-01T02:06:28;7.35;;;2.05;;
20056;SDS011;10189;49.546;7.906;2023-04-01T02:09:01;7.32;;;2.45;;
20056;SDS011;10189;49.546;7.906;2023-04-01T02:11:37;9.02;;;1.75;;
20056;SDS011;10189;49.546;7.906;2023-04-01T02:14:11;4.43;;;1.83;;
20056;SDS011;10189;49.546;7.906;2023-04-01T02:16:59;8.45;;;2.10;;
20056;SDS011;10189;49.546;7.906;2023-04-01T02:19:44;7.82;;;1.92;;
20056;SDS011;10189;49.546;7.906;2023-04-01T02:22:40;6.97;;;1.65;;
20056;SDS011;10189;49.546;7.906;2023-04-01T02:25:14;2.95;;;1.23;;
20056;SDS011;10189;49.546;7.906;2023-04-01T02:28:01;5.43;;;1.60;;
20056;SDS011;10189;49.546;7.906;2023-04-01T02:30:33;6.20;;;1.60;;
20056;SDS011;10189;49.546;7.906;2023-04-01T02:33:04;5.38;;;1.67;;
20056;SDS011;10189;49.546;7.906;2023-04-01T02:35:32;5.05;;;1.77;;
20056;SDS011;10189;49.546;7.906;2023-04-01T02:38:01;8.70;;;1.90;;
20056;SDS011;10189;49.546;7.906;2023-04-01T02:40:28;5.40;;;1.40;;
20056;SDS011;10189;49.546;7.906;2023-04-01T02:42:55;5.38;;;1.70;;
20056;SDS011;10189;49.546;7.906;2023-04-01T02:45:21;5.18;;;1.45;;
20056;SDS011;10189;49.546;7.906;2023-04-01T02:47:47;6.82;;;1.40;;
20056;SDS011;10189;49.546;7.906;2023-04-01T02:50:14;6.72;;;1.77;;
20056;SDS011;10189;49.546;7.906;2023-04-01T02:52:40;4.60;;;1.63;;
20056;SDS011;10189;49.546;7.906;2023-04-01T02:55:06;8.48;;;1.90;;
20056;SDS011;10189;49.546;7.906;2023-04-01T02:57:33;4.60;;;1.80;;
20056;SDS011;10189;49.546;7.906;2023-04-01T02:59:59;5.60;;;1.55;;
20056;SDS011;10189;49.546;7.906;2023-04-01T03:02:25;4.63;;;1.63;;
20056;SDS011;10189;49.546;7.906;2023-04-01T03:04:52;6.45;;;1.80;;
20056;SDS011;10189;49.546;7.906;2023-04-01T03:07:18;7.57;;;2.08;;
20056;SDS011;10189;49.546;7.906;2023-04-01T03:09:44;6.35;;;1.83;;
20056;SDS011;10189;49.546;7.906;2023-04-01T03:12:10;8.15;;;1.67;;
20056;SDS011;10189;49.546;7.906;2023-04-01T03:14:45;7.38;;;1.73;;
20056;SDS011;10189;49.546;7.906;2023-04-01T03:17:12;5.38;;;1.77;;
20056;SDS011;10189;49.546;7.906;2023-04-01T03:19:38;8.00;;;1.77;;
20056;SDS011;10189;49.546;7.906;2023-04-01T03:22:08;7.43;;;1.65;;
20056;SDS011;10189;49.546;7.906;2023-04-01T03:24:36;8.18;;;1.70;;
20056;SDS011;10189;49.546;7.906;2023-04-01T03:27:03;6.10;;;1.85;;
20056;SDS011;10189;49.546;7.906;2023-04-01T03:29:29;6.78;;;2.05;;
20056;SDS011;10189;49.546;7.906;2023-04-01T03:31:55;5.75;;;1.73;;
20056;SDS011;10189;49.546;7.906;2023-04-01T03:34:24;4.40;;;1.40;;
20056;SDS011;10189;49.546;7.906;2023-04-01T03:36:51;8.15;;;2.10;;
20056;SDS011;10189;49.546;7.906;2023-04-01T03:39:18;7.13;;;2.20;;
20056;SDS011;10189;49.546;7.906;2023-04-01T03:41:45;3.97;;;1.63;;
20056;SDS011;10189;49.546;7.906;2023-04-01T03:44:12;5.53;;;1.45;;
20056;SDS011;10189;49.546;7.906;2023-04-01T03:46:38;5.82;;;1.52;;
20056;SDS011;10189;49.546;7.906;2023-04-01T03:49:08;5.63;;;1.58;;
20056;SDS011;10189;49.546;7.906;2023-04-01T03:51:39;6.60;;;1.92;;
20056;SDS011;10189;49.546;7.906;2023-04-01T03:54:07;6.32;;;1.58;;
20056;SDS011;10189;49.546;7.906;2023-04-01T03:56:35;4.95;;;1.48;;
20056;SDS011;10189;49.546;7.906;2023-04-01T03:59:03;7.47;;;1.92;;
20056;SDS011;10189;49.546;7.906;2023-04-01T04:04:00;4.05;;;1.52;;
20056;SDS011;10189;49.546;7.906;2023-04-01T04:06:26;4.90;;;1.63;;
20056;SDS011;10189;49.546;7.906;2023-04-01T04:08:53;5.22;;;1.48;;
20056;SDS011;10189;49.546;7.906;2023-04-01T04:11:20;6.55;;;1.75;;
20056;SDS011;10189;49.546;7.906;2023-04-01T04:13:47;6.80;;;2.15;;
20056;SDS011;10189;49.546;7.906;2023-04-01T04:16:15;5.80;;;1.80;;
20056;SDS011;10189;49.546;7.906;2023-04-01T04:18:45;6.47;;;1.83;;
20056;SDS011;10189;49.546;7.906;2023-04-01T04:21:12;6.72;;;1.50;;
20056;SDS011;10189;49.546;7.906;2023-04-01T04:23:41;4.38;;;1.55;;
20056;SDS011;10189;49.546;7.906;2023-04-01T04:26:09;5.07;;;1.58;;
20056;SDS011;10189;49.546;7.906;2023-04-01T04:28:39;7.18;;;1.60;;
20056;SDS011;10189;49.546;7.906;2023-04-01T04:31:05;7.32;;;1.83;;
20056;SDS011;10189;49.546;7.906;2023-04-01T04:33:34;5.45;;;1.70;;
20056;SDS011;10189;49.546;7.906;2023-04-01T04:36:01;5.30;;;1.85;;
20056;SDS011;10189;49.546;7.906;2023-04-01T04:38:29;4.88;;;1.80;;
20056;SDS011;10189;49.546;7.906;2023-04-01T04:40:55;9.02;;;1.83;;
20056;SDS011;10189;49.546;7.906;2023-04-01T04:43:21;7.53;;;2.05;;
20056;SDS011;10189;49.546;7.906;2023-04-01T04:45:47;5.25;;;1.80;;
20056;SDS011;10189;49.546;7.906;2023-04-01T04:48:15;4.95;;;1.85;;
20056;SDS011;10189;49.546;7.906;2023-04-01T04:50:44;7.07;;;2.65;;
20056;SDS011;10189;49.546;7.906;2023-04-01T04:53:14;5.20;;;2.90;;
20056;SDS011;10189;49.546;7.906;2023-04-01T04:55:45;5.88;;;2.40;;
20056;SDS011;10189;49.546;7.906;2023-04-01T04:58:21;7.97;;;2.20;;
20056;SDS011;10189;49.546;7.906;2023-04-01T05:00:47;5.75;;;1.60;;
20056;SDS011;10189;49.546;7.906;2023-04-01T05:03:21;4.63;;;1.65;;
20056;SDS011;10189;49.546;7.906;2023-04-01T05:05:51;6.97;;;1.98;;
20056;SDS011;10189;49.546;7.906;2023-04-01T05:08:19;3.95;;;1.77;;
20056;SDS011;10189;49.546;7.906;2023-04-01T05:10:45;5.47;;;1.67;;
20056;SDS011;10189;49.546;7.906;2023-04-01T05:13:12;5.72;;;1.65;;
20056;SDS011;10189;49.546;7.906;2023-04-01T05:15:39;5.95;;;1.55;;
20056;SDS011;10189;49.546;7.906;2023-04-01T05:18:05;2.88;;;1.17;;
20056;SDS011;10189;49.546;7.906;2023-04-01T05:20:30;4.05;;;1.70;;
20056;SDS011;10189;49.546;7.906;2023-04-01T05:22:57;4.22;;;1.35;;
20056;SDS011;10189;49.546;7.906;2023-04-01T05:25:23;4.32;;;1.48;;
20056;SDS011;10189;49.546;7.906;2023-04-01T05:27:50;5.40;;;1.90;;
20056;SDS011;10189;49.546;7.906;2023-04-01T05:30:16;3.45;;;1.48;;
20056;SDS011;10189;49.546;7.906;2023-04-01T05:32:56;3.25;;;1.50;;
20056;SDS011;10189;49.546;7.906;2023-04-01T05:35:22;3.55;;;1.42;;
20056;SDS011;10189;49.546;7.906;2023-04-01T05:37:49;4.07;;;2.00;;
20056;SDS011;10189;49.546;7.906;2023-04-01T05:40:15;4.53;;;1.35;;
20056;SDS011;10189;49.546;7.906;2023-04-01T05:42:41;5.32;;;1.90;;
20056;SDS011;10189;49.546;7.906;2023-04-01T05:45:07;7.53;;;2.05;;
20056;SDS011;10189;49.546;7.906;2023-04-01T05:47:57;7.28;;;2.38;;
20056;SDS011;10189;49.546;7.906;2023-04-01T05:50:27;4.05;;;1.88;;
20056;SDS011;10189;49.546;7.906;2023-04-01T05:52:53;5.65;;;1.52;;
20056;SDS011;10189;49.546;7.906;2023-04-01T05:55:20;6.80;;;3.28;;
20056;SDS011;10189;49.546;7.906;2023-04-01T05:57:48;4.65;;;1.83;;
20056;SDS011;10189;49.546;7.906;2023-04-01T06:00:15;3.60;;;1.50;;
20056;SDS011;10189;49.546;7.906;2023-04-01T06:02:42;3.58;;;1.45;;
20056;SDS011;10189;49.546;7.906;2023-04-01T06:05:19;5.60;;;2.58;;
20056;SDS011;10189;49.546;7.906;2023-04-01T06:07:58;5.00;;;2.38;;
20056;SDS011;10189;49.546;7.906;2023-04-01T06:16:24;7.43;;;3.03;;
20056;SDS011;10189;49.546;7.906;2023-04-01T06:28:07;5.60;;;1.80;;
20056;SDS011;10189;49.546;7.906;2023-04-01T06:42:25;1.90;;;1.15;;
20056;SDS011;10189;49.546;7.906;2023-04-01T06:45:41;4.10;;;1.75;;
20056;SDS011;10189;49.546;7.906;2023-04-01T06:55:14;2.72;;;1.15;;
20056;SDS011;10189;49.546;7.906;2023-04-01T06:58:22;2.60;;;1.15;;
20056;SDS011;10189;49.546;7.906;2023-04-01T07:00:56;4.05;;;1.73;;
20056;SDS011;10189;49.546;7.906;2023-04-01T07:06:08;4.40;;;1.88;;
20056;SDS011;10189;49.546;7.906;2023-04-01T07:08:49;4.60;;;2.55;;
20056;SDS011;10189;49.546;7.906;2023-04-01T07:11:26;3.97;;;1.40;;
20056;SDS011;10189;49.546;7.906;2023-04-01T07:14:33;3.88;;;1.20;;
20056;SDS011;10189;49.546;7.906;2023-04-01T07:17:17;4.10;;;1.67;;
20056;SDS011;10189;49.546;7.906;2023-04-01T07:22:34;1.90;;;0.80;;
20056;SDS011;10189;49.546;7.906;2023-04-01T07:25:22;3.22;;;1.60;;
20056;SDS011;10189;49.546;7.906;2023-04-01T07:28:31;4.50;;;3.10;;
20056;SDS011;10189;49.546;7.906;2023-04-01T07:34:23;1.50;;;0.80;;
20056;SDS011;10189;49.546;7.906;2023-04-01T07:37:12;1.60;;;0.80;;
20056;SDS011;10189;49.546;7.906;2023-04-01T08:00:31;1.42;;;0.75;;
20056;SDS011;10189;49.546;7.906;2023-04-01T08:03:36;1.90;;;0.80;;
20056;SDS011;10189;49.546;7.906;2023-04-01T08:06:24;1.85;;;1.10;;
20056;SDS011;10189;49.546;7.906;2023-04-01T08:09:23;3.08;;;0.80;;
20056;SDS011;10189;49.546;7.906;2023-04-01T08:22:33;1.75;;;0.70;;
20056;SDS011;10189;49.546;7.906;2023-04-01T08:25:24;1.13;;;0.55;;
20056;SDS011;10189;49.546;7.906;2023-04-01T08:33:31;0.80;;;0.55;;
20056;SDS011;10189;49.546;7.906;2023-04-01T08:36:10;1.00;;;0.50;;
20056;SDS011;10189;49.546;7.906;2023-04-01T08:38:46;0.90;;;0.50;;
20056;SDS011;10189;49.546;7.906;2023-04-01T08:50:26;0.90;;;0.45;;
20056;SDS011;10189;49.546;7.906;2023-04-01T09:04:51;1.05;;;0.50;;
20056;SDS011;10189;49.546;7.906;2023-04-01T09:08:08;2.00;;;0.60;;
20056;SDS011;10189;49.546;7.906;2023-04-01T09:17:21;1.23;;;0.43;;
20056;SDS011;10189;49.546;7.906;2023-04-01T09:35:20;1.00;;;0.90;;
20056;SDS011;10189;49.546;7.906;2023-04-01T09:44:18;1.20;;;0.57;;
20056;SDS011;10189;49.546;7.906;2023-04-01T09:50:14;0.82;;;0.50;;
20056;SDS011;10189;49.546;7.906;2023-04-01T09:52:59;0.73;;;0.50;;
20056;SDS011;10189;49.546;7.906;2023-04-01T10:05:51;0.65;;;0.60;;
20056;SDS011;10189;49.546;7.906;2023-04-01T10:17:12;1.00;;;0.88;;
20056;SDS011;10189;49.546;7.906;2023-04-01T10:23:44;1.88;;;1.10;;
20056;SDS011;10189;49.546;7.906;2023-04-01T11:01:43;0.30;;;0.30;;
20056;SDS011;10189;49.546;7.906;2023-04-01T11:05:22;1.95;;;0.40;;
20056;SDS011;10189;49.546;7.906;2023-04-01T11:09:06;0.20;;;0.20;;
20056;SDS011;10189;49.546;7.906;2023-04-01T11:32:21;1.00;;;0.80;;
20056;SDS011;10189;49.546;7.906;2023-04-01T11:38:20;1.35;;;0.77;;
20056;SDS011;10189;49.546;7.906;2023-04-01T11:45:21;2.28;;;1.80;;
20056;SDS011;10189;49.546;7.906;2023-04-01T11:57:19;0.95;;;0.73;;
20056;SDS011;10189;49.546;7.906;2023-04-01T12:09:35;1.58;;;1.13;;
20056;SDS011;10189;49.546;7.906;2023-04-01T12:16:13;2.38;;;0.50;;
20056;SDS011;10189;49.546;7.906;2023-04-01T12:19:15;1.77;;;1.00;;
20056;SDS011;10189;49.546;7.906;2023-04-01T12:22:22;0.60;;;0.60;;
20056;SDS011;10189;49.546;7.906;2023-04-01T12:24:55;0.90;;;0.52;;
20056;SDS011;10189;49.546;7.906;2023-04-01T12:27:45;0.47;;;0.40;;
20056;SDS011;10189;49.546;7.906;2023-04-01T12:48:08;0.70;;;0.52;;
20056;SDS011;10189;49.546;7.906;2023-04-01T12:51:16;1.63;;;0.68;;
20056;SDS011;10189;49.546;7.906;2023-04-01T12:54:17;0.90;;;0.73;;
20056;SDS011;10189;49.546;7.906;2023-04-01T13:02:39;0.88;;;0.80;;
20056;SDS011;10189;49.546;7.906;2023-04-01T13:08:50;2.50;;;2.00;;
20056;SDS011;10189;49.546;7.906;2023-04-01T13:17:38;1.42;;;0.80;;
20056;SDS011;10189;49.546;7.906;2023-04-01T13:29:01;1.08;;;0.70;;
20056;SDS011;10189;49.546;7.906;2023-04-01T13:31:47;1.95;;;1.48;;
20056;SDS011;10189;49.546;7.906;2023-04-01T13:37:24;1.13;;;0.70;;
20056;SDS011;10189;49.546;7.906;2023-04-01T13:43:23;1.15;;;0.93;;
20056;SDS011;10189;49.546;7.906;2023-04-01T13:48:55;4.57;;;1.00;;
20056;SDS011;10189;49.546;7.906;2023-04-01T14:03:37;1.92;;;1.50;;
20056;SDS011;10189;49.546;7.906;2023-04-01T14:09:04;3.83;;;1.15;;
20056;SDS011;10189;49.546;7.906;2023-04-01T14:21:55;1.27;;;1.00;;
20056;SDS011;10189;49.546;7.906;2023-04-01T14:32:44;2.97;;;1.27;;
20056;SDS011;10189;49.546;7.906;2023-04-01T14:44:30;1.25;;;0.73;;
20056;SDS011;10189;49.546;7.906;2023-04-01T14:50:13;1.48;;;0.93;;
20056;SDS011;10189;49.546;7.906;2023-04-01T14:53:28;1.42;;;1.33;;
20056;SDS011;10189;49.546;7.906;2023-04-01T14:55:57;1.45;;;0.90;;
20056;SDS011;10189;49.546;7.906;2023-04-01T15:01:25;1.90;;;1.20;;
20056;SDS011;10189;49.546;7.906;2023-04-01T15:12:53;2.00;;;0.70;;
20056;SDS011;10189;49.546;7.906;2023-04-01T15:38:52;1.80;;;0.70;;
20056;SDS011;10189;49.546;7.906;2023-04-01T15:47:38;2.05;;;0.60;;
20056;SDS011;10189;49.546;7.906;2023-04-01T15:50:24;1.80;;;0.77;;
20056;SDS011;10189;49.546;7.906;2023-04-01T15:56:16;0.77;;;0.60;;
20056;SDS011;10189;49.546;7.906;2023-04-01T16:08:09;1.20;;;0.80;;
20056;SDS011;10189;49.546;7.906;2023-04-01T16:24:35;1.42;;;0.95;;
20056;SDS011;10189;49.546;7.906;2023-04-01T16:27:49;1.42;;;0.80;;
20056;SDS011;10189;49.546;7.906;2023-04-01T16:30:57;2.03;;;0.70;;
20056;SDS011;10189;49.546;7.906;2023-04-01T16:37:15;2.05;;;1.00;;
20056;SDS011;10189;49.546;7.906;2023-04-01T16:39:54;1.67;;;0.85;;
20056;SDS011;10189;49.546;7.906;2023-04-01T16:42:53;3.25;;;2.10;;
20056;SDS011;10189;49.546;7.906;2023-04-01T16:45:53;2.05;;;1.35;;
20056;SDS011;10189;49.546;7.906;2023-04-01T16:49:00;1.67;;;0.70;;
20056;SDS011;10189;49.546;7.906;2023-04-01T16:57:27;0.60;;;0.60;;
20056;SDS011;10189;49.546;7.906;2023-04-01T17:00:30;1.90;;;0.97;;
20056;SDS011;10189;49.546;7.906;2023-04-01T17:14:32;2.90;;;2.38;;
20056;SDS011;10189;49.546;7.906;2023-04-01T17:17:17;1.23;;;0.70;;
20056;SDS011;10189;49.546;7.906;2023-04-01T17:25:39;2.70;;;0.90;;
20056;SDS011;10189;49.546;7.906;2023-04-01T17:31:18;2.70;;;1.90;;
20056;SDS011;10189;49.546;7.906;2023-04-01T17:34:42;3.30;;;1.50;;
20056;SDS011;10189;49.546;7.906;2023-04-01T17:37:45;1.60;;;0.80;;
20056;SDS011;10189;49.546;7.906;2023-04-01T17:40:49;1.52;;;1.00;;
20056;SDS011;10189;49.546;7.906;2023-04-01T17:54:33;6.85;;;4.97;;
20056;SDS011;10189;49.546;7.906;2023-04-01T18:09:36;2.17;;;0.90;;
20056;SDS011;10189;49.546;7.906;2023-04-01T18:18:58;1.20;;;1.10;;
20056;SDS011;10189;49.546;7.906;2023-04-01T18:21:48;0.95;;;0.80;;
20056;SDS011;10189;49.546;7.906;2023-04-01T18:27:22;2.08;;;0.80;;
20056;SDS011;10189;49.546;7.906;2023-04-01T18:30:07;2.40;;;1.70;;
20056;SDS011;10189;49.546;7.906;2023-04-01T18:35:34;2.20;;;1.35;;
20056;SDS011;10189;49.546;7.906;2023-04-01T18:38:28;2.00;;;1.25;;
20056;SDS011;10189;49.546;7.906;2023-04-01T18:56:11;1.67;;;1.02;;
20056;SDS011;10189;49.546;7.906;2023-04-01T18:58:59;3.40;;;2.53;;
20056;SDS011;10189;49.546;7.906;2023-04-01T19:19:33;5.38;;;4.07;;
20056;SDS011;10189;49.546;7.906;2023-04-01T19:25:58;3.35;;;1.73;;
20056;SDS011;10189;49.546;7.906;2023-04-01T19:36:40;2.75;;;1.75;;
20056;SDS011;10189;49.546;7.906;2023-04-01T19:42:22;2.83;;;1.52;;
20056;SDS011;10189;49.546;7.906;2023-04-01T19:47:45;6.57;;;2.00;;
20056;SDS011;10189;49.546;7.906;2023-04-01T19:50:49;2.40;;;1.80;;
20056;SDS011;10189;49.546;7.906;2023-04-01T19:56:44;2.42;;;1.85;;
20056;SDS011;10189;49.546;7.906;2023-04-01T19:59:41;2.25;;;1.73;;
20056;SDS011;10189;49.546;7.906;2023-04-01T20:02:51;2.00;;;1.77;;
20056;SDS011;10189;49.546;7.906;2023-04-01T20:15:22;2.17;;;1.70;;
20056;SDS011;10189;49.546;7.906;2023-04-01T20:18:19;2.67;;;1.90;;
20056;SDS011;10189;49.546;7.906;2023-04-01T20:26:43;3.58;;;2.00;;
20056;SDS011;10189;49.546;7.906;2023-04-01T20:31:59;2.67;;;1.88;;
20056;SDS011;10189;49.546;7.906;2023-04-01T20:35:15;3.85;;;2.13;;
20056;SDS011;10189;49.546;7.906;2023-04-01T20:53:29;2.58;;;2.38;;
20056;SDS011;10189;49.546;7.906;2023-04-01T20:56:32;4.57;;;2.67;;
20056;SDS011;10189;49.546;7.906;2023-04-01T21:09:19;3.75;;;2.80;;
20056;SDS011;10189;49.546;7.906;2023-04-01T21:39:47;3.70;;;3.40;;
20056;SDS011;10189;49.546;7.906;2023-04-01T21:42:57;5.32;;;3.28;;
20056;SDS011;10189;49.546;7.906;2023-04-01T21:55:22;5.35;;;3.92;;
20056;SDS011;10189;49.546;7.906;2023-04-01T22:01:38;5.13;;;4.63;;
20056;SDS011;10189;49.546;7.906;2023-04-01T22:12:35;9.05;;;4.88;;
20056;SDS011;10189;49.546;7.906;2023-04-01T22:18:08;6.95;;;5.03;;
20056;SDS011;10189;49.546;7.906;2023-04-01T22:20:50;7.85;;;5.00;;
20056;SDS011;10189;49.546;7.906;2023-04-01T22:26:32;5.53;;;4.50;;
20056;SDS011;10189;49.546;7.906;2023-04-01T22:29:07;6.18;;;4.53;;
20056;SDS011;10189;49.546;7.906;2023-04-01T22:31:54;6.18;;;4.40;;
20056;SDS011;10189;49.546;7.906;2023-04-01T22:37:19;5.80;;;4.60;;
20056;SDS011;10189;49.546;7.906;2023-04-01T22:40:00;5.90;;;5.07;;
20056;SDS011;10189;49.546;7.906;2023-04-01T22:42:45;5.25;;;4.70;;
20056;SDS011;10189;49.546;7.906;2023-04-01T22:50:50;6.47;;;4.10;;
20056;SDS011;10189;49.546;7.906;2023-04-01T22:56:24;3.83;;;3.47;;
20056;SDS011;10189;49.546;7.906;2023-04-01T23:01:52;5.13;;;4.50;;
20056;SDS011;10189;49.546;7.906;2023-04-01T23:04:54;4.35;;;3.95;;
20056;SDS011;10189;49.546;7.906;2023-04-01T23:10:44;4.65;;;3.10;;
20056;SDS011;10189;49.546;7.906;2023-04-01T23:13:22;4.22;;;3.03;;
20056;SDS011;10189;49.546;7.906;2023-04-01T23:15:55;3.85;;;3.00;;
20056;SDS011;10189;49.546;7.906;2023-04-01T23:23:56;3.72;;;2.88;;
20056;SDS011;10189;49.546;7.906;2023-04-01T23:26:52;4.65;;;3.47;;
20056;SDS011;10189;49.546;7.906;2023-04-01T23:29:36;5.47;;;3.58;;
20056;SDS011;10189;49.546;7.906;2023-04-01T23:32:18;3.80;;;3.33;;
20056;SDS011;10189;49.546;7.906;2023-04-01T23:34:51;3.90;;;3.50;;
20056;SDS011;10189;49.546;7.906;2023-04-01T23:37:21;5.05;;;3.88;;
20056;SDS011;10189;49.546;7.906;2023-04-01T23:39:58;6.93;;;3.78;;
20056;SDS011;10189;49.546;7.906;2023-04-01T23:42:27;3.88;;;3.50;;
20056;SDS011;10189;49.546;7.906;2023-04-01T23:44:58;4.82;;;3.85;;
20056;SDS011;10189;49.546;7.906;2023-04-01T23:47:42;4.63;;;3.60;;
20056;SDS011;10189;49.546;7.906;2023-04-01T23:52:44;5.07;;;3.75;;
20056;SDS011;10189;49.546;7.906;2023-04-01T23:55:41;4.00;;;3.00;;
20056;SDS011;10189;49.546;7.906;2023-04-01T23:58:21;4.25;;;3.50;;
